• Join FlightAware (Why Join?)
  • Login
  • US Flag 
06:00AM EDT


 

Airport Tracker/Info


-or-


 

Live Flight TrackerFlight Track Log ✈ DAL1331 ✈ 20-Jun-2013 ✈ KBWI - KMSP

Flight Track Log - Related Links

Times and Time Zones

All times are in EDT time to prevent confusion due to time zone crossing. See the DAL1331 flight status page for this flight to view local times or setup timezone preferences in your user account.

Time Position Orientation Groundspeed Altitude Reporting Facility
EDT Latitude Longitude Course Direction KTS MPH feet Rate Location/Type
07:39PM 39.1500 -76.6500 296° West 185 213 1,600  Level Potomac TRACON
07:40PM 39.1333 -76.7167 252° West 271 312 3,700 2,580 Climbing Potomac TRACON
07:41PM 39.2000 -77.1215 270° West  Level FlightAware Approximate
07:41PM 39.1667 -76.8000 297° West 283 326 6,900  Level Potomac TRACON
07:42PM 39.2826 -77.2158 322° Northwest  Level FlightAware Approximate
07:42PM 39.2000 -76.9000 293° West 287 330 9,700  Level Potomac TRACON
07:43PM 39.3721 -77.3162 293° West  Level FlightAware Approximate
07:43PM 39.2167 -77.0000 282° West 312 359 11,800  Level Potomac TRACON
07:44PM 39.4055 -77.4646 296° West  Level FlightAware Approximate
07:44PM 39.2500 -77.1167 290° West 365 420 13,100  Level Potomac TRACON
07:46PM 39.3711 -77.3931 300° West 396 456 17,300 1,740 Climbing Washington Center
07:47PM 39.4253 -77.5206 299° West 401 461 19,000 3,360 Climbing Washington Center
07:50PM 39.5519 -77.9042 293° West 417 480 30,000 1,500 Climbing Cleveland Center
07:51PM 39.5950 -78.0508 291° West 425 489 24,900 -2,040 Descending Cleveland Center
07:52PM 39.6397 -78.1972 292° West 430 495 26,000 1,020 Climbing Cleveland Center
07:53PM 39.6886 -78.3439 293° West 435 501 27,000 900 Climbing Cleveland Center
07:54PM 39.7539 -78.4850 301° West 445 512 27,900 900 Climbing Cleveland Center
07:55PM 39.8147 -78.6292 299° West 445 512 28,900 1,020 Climbing Cleveland Center
07:56PM 39.8797 -78.7706 301° West 450 518 30,000 540 Climbing Cleveland Center
07:57PM 39.9444 -78.9097 301° West 455 524 30,000  Level Cleveland Center
07:58PM 40.0108 -79.0461 302° West 455 524 30,000  Level Cleveland Center
07:59PM 40.0692 -79.1858 299° West 450 518 30,000  Level Cleveland Center
08:00PM 40.1353 -79.3258 302° West 445 512 30,000  Level Cleveland Center
08:01PM 40.1972 -79.4633 301° West 445 512 30,000  Level Cleveland Center
08:02PM 40.2611 -79.6064 300° West 445 512 30,000  Level Cleveland Center
08:03PM 40.3247 -79.7469 301° West 445 512 30,000  Level Cleveland Center
08:04PM 40.3861 -79.8853 300° West 445 512 30,000  Level Cleveland Center
08:05PM 40.4558 -80.0456 300° West 451 519 30,000  Level Cleveland Center
08:06PM 40.5167 -80.1869 300° West 451 519 30,000  Level Cleveland Center
08:07PM 40.5797 -80.3317 300° West 456 525 30,000  Level Cleveland Center
08:08PM 40.6425 -80.4736 300° West 456 525 30,000  Level Cleveland Center
08:09PM 40.7050 -80.6158 300° West 450 518 30,000  Level Cleveland Center
08:10PM 40.7633 -80.7642 297° West 455 524 30,000  Level Cleveland Center
08:11PM 40.8172 -80.9122 296° West 455 524 30,000  Level Cleveland Center
08:12PM 40.8667 -81.0664 293° West 450 518 30,000  Level Cleveland Center
08:13PM 40.9139 -81.2014 295° West 450 518 30,000  Level Cleveland Center
08:14PM 40.9672 -81.3503 295° West 445 512 30,000  Level Cleveland Center
08:15PM 41.0181 -81.5022 294° West 445 512 30,000  Level Cleveland Center
08:16PM 41.0689 -81.6517 294° West 445 512 30,000  Level Cleveland Center
08:17PM 41.1278 -81.8208 295° West 445 512 30,000  Level Cleveland Center
08:18PM 41.1844 -81.9681 297° West 445 512 30,000  Level Cleveland Center
08:19PM 41.2344 -82.1239 293° West 445 512 30,000  Level Cleveland Center
08:20PM 41.2867 -82.2717 295° West 454 522 30,000  Level Cleveland Center
08:21PM 41.3383 -82.4278 294° West 454 522 30,000  Level Cleveland Center
08:22PM 41.3900 -82.5786 295° West 454 522 30,000  Level Cleveland Center
08:23PM 41.4356 -82.7158 294° West 454 522 30,000  Level Cleveland Center
08:24PM 41.4869 -82.8672 294° West 454 522 30,000  Level Cleveland Center
08:25PM 41.5378 -83.0244 293° West 454 522 30,000  Level Cleveland Center
08:26PM 41.5867 -83.1733 294° West 448 516 30,000  Level Cleveland Center
08:27PM 41.6411 -83.3394 294° West 443 510 30,000  Level Cleveland Center
08:28PM 41.6894 -83.4917 293° West 448 516 30,000  Level Cleveland Center
08:29PM 41.7419 -83.6444 295° West 448 516 30,000  Level Cleveland Center
08:30PM 41.7917 -83.8000 293° West 448 516 30,000  Level Cleveland Center
08:31PM 41.8394 -83.9558 292° West 448 516 30,000  Level Cleveland Center
08:32PM 41.8892 -84.1092 294° West 453 521 30,000  Level Cleveland Center
08:33PM 41.9383 -84.2653 293° West 453 521 30,000  Level Cleveland Center
08:34PM 42.0069 -84.4692 294° West 455 524 30,000  Level Chicago Center
08:35PM 42.0550 -84.6283 292° West 461 531 30,000  Level Chicago Center
08:36PM 42.1050 -84.7900 293° West 467 537 30,000  Level Chicago Center
08:37PM 42.1550 -84.9508 293° West 467 537 30,000  Level Chicago Center
08:38PM 42.2150 -85.1461 293° West 469 540 30,000  Level Chicago Center
08:39PM 42.2647 -85.3072 293° West 467 537 30,000  Level Chicago Center
08:40PM 42.3139 -85.4697 292° West 466 536 30,000  Level Chicago Center
08:42PM 42.3625 -85.6325 292° West 467 537 30,000  Level Chicago Center
08:43PM 42.4114 -85.7939 292° West 465 535 30,000  Level Chicago Center
08:44PM 42.4589 -85.9575 292° West 465 535 30,000  Level Chicago Center
08:45PM 42.5069 -86.1203 292° West 464 534 30,000  Level Chicago Center
08:46PM 42.5639 -86.3153 292° West 464 534 30,000  Level Chicago Center
08:47PM 42.6103 -86.4758 291° West 458 527 30,000  Level Chicago Center
08:48PM 42.6572 -86.6358 292° West 454 522 30,000  Level Chicago Center
08:49PM 42.7022 -86.7961 291° West 454 522 30,000  Level Chicago Center
08:50PM 42.7469 -86.9561 291° West 448 516 30,000  Level Chicago Center
08:51PM 42.7928 -87.1167 291° West 454 522 30,000  Level Chicago Center
08:52PM 42.8467 -87.3100 291° West 454 522 30,000  Level Chicago Center
08:53PM 42.8883 -87.4567 291° West 456 525 30,000  Level Chicago Center
08:54PM 42.9611 -87.6286 300° West 454 522 30,000  Level Chicago Center
08:55PM 43.0328 -87.7714 305° West 457 526 30,000  Level Chicago Center
08:56PM 43.1033 -87.9142 304° West 453 521 30,000  Level Chicago Center
08:57PM 43.1719 -88.0603 303° West 455 524 30,000  Level Chicago Center
08:58PM 43.2400 -88.2003 304° West 444 511 30,000  Level Chicago Center
08:59PM 43.3086 -88.3419 304° West 444 511 30,000  Level Chicago Center
09:00PM 43.3911 -88.5097 304° West 453 521 30,000  Level Chicago Center
09:01PM 43.4519 -88.6397 303° West 457 526 30,000  Level Chicago Center
09:02PM 43.5322 -88.8058 304° West 447 514 30,000  Level Chicago Center
09:03PM 43.6006 -88.9494 303° West 446 513 30,000  Level Chicago Center
09:04PM 43.6686 -89.0933 303° West 447 514 30,000  Level Chicago Center
09:05PM 43.7364 -89.2361 303° West 445 512 30,000  Level Chicago Center
09:06PM 43.8050 -89.3786 304° West 445 512 30,000  Level Chicago Center
09:07PM 43.8831 -89.5478 303° West 447 514 30,000  Level Chicago Center
09:08PM 43.9511 -89.6917 303° West 446 513 30,000  Level Chicago Center
09:09PM 44.0178 -89.8367 303° West 446 513 30,000  Level Chicago Center
09:10PM 44.0864 -89.9814 303° West 447 514 30,000  Level Chicago Center
09:12PM 44.1647 -90.1228 308° West 459 528 30,000  Level Chicago Center
09:13PM 44.2408 -90.2989 301° West 456 525 30,000  Level Chicago Center
09:14PM 44.2972 -90.4350 300° West 453 521 30,000  Level Chicago Center
09:15PM 44.3608 -90.5867 300° West 456 525 30,000  Level Chicago Center
09:16PM 44.4367 -90.7692 300° West 457 526 30,000  Level Chicago Center
09:17PM 44.4994 -90.9225 300° West 459 528 30,000  Level Chicago Center
09:18PM 44.5622 -91.0753 300° West 459 528 30,000 -180 Level Chicago Center
09:19PM 44.6244 -91.2275 300° West 456 525 29,700 -1,740 Descending Chicago Center
09:20PM 44.7197 -91.4617 300° West 449 517 25,900 -2,820 Descending Minneapolis Center
09:21PM 44.7808 -91.6094 300° West 442 509 23,000 -2,640 Descending Minneapolis Center
09:22PM 44.8378 -91.7514 300° West 427 491 20,500 -2,520 Descending Minneapolis Center
09:23PM 44.8897 -91.8839 299° West 396 456 17,800 -2,820 Descending Minneapolis Center
09:24PM 44.9411 -92.0144 299° West 384 442 14,700 -2,820 Descending Minneapolis Center
09:25PM 44.9925 -92.1414 300° West 377 434 12,000 -1,800 Descending Minneapolis Center
09:26PM 45.0444 -92.2956 296° West 366 421 11,000 -480 Descending Minneapolis Center
09:27PM 45.0258 -92.4331 259° West 360 414 11,000  Level Minneapolis Center
09:28PM 45.0039 -92.5717 257° West 363 418 11,000  Level Minneapolis Center
09:29PM 44.9828 -92.7100 258° West 363 418 11,000 -120 Level Minneapolis Center
09:31PM 44.9608 -92.8419 257° West 348 400 10,800 -960 Descending Minneapolis Center
09:32PM 44.9408 -92.9669 257° West 275 316 9,100 -1,380 Descending Minneapolis Center
09:33PM 44.9256 -93.0714 258° West 275 316 8,000 -540 Descending Minneapolis Center
09:34PM 44.9675 -93.1636 303° West 284 327 8,000 -600 Level Minneapolis Center
09:35PM 45.0111 -93.2542 304° West 282 325 6,800 -1,440 Descending Minneapolis Center
09:36PM 45.0581 -93.3450 306° West 287 330 5,100 -960 Descending Minneapolis Center
09:37PM 45.0803 -93.4414 288° West 214 246 4,900 -540 Descending Minneapolis Center
09:38PM 45.0342 -93.4217 163° South 182 209 4,000 -900 Descending Minneapolis Center